createdAt,value
2023-05-07T00:02:25.930Z,0.88715
2023-05-07T00:07:27.247Z,0.88715
2023-05-07T00:12:28.609Z,0.88715
2023-05-07T00:17:30.125Z,0.88715
2023-05-07T00:22:31.478Z,0.88715
2023-05-07T00:27:32.818Z,0
2023-05-07T00:32:34.720Z,0.88715
2023-05-07T00:37:36.217Z,0
2023-05-07T00:42:37.540Z,0
2023-05-07T00:47:39.350Z,0
2023-05-07T00:52:40.746Z,0.88715
2023-05-07T00:57:42.007Z,0
2023-05-07T01:02:43.927Z,0
2023-05-07T01:07:45.603Z,0.88715
2023-05-07T01:12:46.950Z,0
2023-05-07T01:17:48.313Z,0.88715
2023-05-07T01:22:49.948Z,0
2023-05-07T01:27:51.288Z,0
2023-05-07T01:32:52.733Z,0.88715
2023-05-07T01:37:54.055Z,0
2023-05-07T01:42:55.500Z,0
2023-05-07T01:47:56.832Z,0
2023-05-07T01:52:58.165Z,0.88715
2023-05-07T01:57:59.593Z,0
2023-05-07T02:03:01.134Z,0
2023-05-07T02:08:02.786Z,0
2023-05-07T02:13:04.363Z,0
2023-05-07T02:18:05.861Z,0
2023-05-07T02:23:07.250Z,0.88715
2023-05-07T02:28:08.704Z,0
2023-05-07T02:33:10.364Z,0
2023-05-07T02:38:11.995Z,0
2023-05-07T02:43:13.614Z,0
2023-05-07T02:48:15.299Z,0
2023-05-07T02:53:16.879Z,0.88715
2023-05-07T02:58:18.469Z,0
2023-05-07T03:03:20.101Z,0
2023-05-07T03:08:21.726Z,0.88715
2023-05-07T03:13:23.550Z,0
2023-05-07T03:18:25.710Z,0
2023-05-07T03:23:27.338Z,0
2023-05-07T03:28:28.910Z,0
2023-05-07T03:33:30.280Z,0
2023-05-07T03:38:31.576Z,0
2023-05-07T03:43:33.269Z,0
2023-05-07T03:48:34.506Z,0
2023-05-07T03:53:35.777Z,0
2023-05-07T03:58:37.090Z,0
2023-05-07T04:03:38.504Z,0
2023-05-07T04:08:39.970Z,0.88715
2023-05-07T04:13:41.575Z,0.88715
2023-05-07T04:18:43.092Z,0
2023-05-07T04:23:44.817Z,2.3237
2023-05-07T04:28:46.376Z,1.2444
2023-05-07T04:33:47.868Z,5.0163
2023-05-07T04:38:49.453Z,10.82555
2023-05-07T04:43:50.682Z,11.3789
2023-05-07T04:48:52.929Z,17.2623
2023-05-07T04:53:54.427Z,24.2524
2023-05-07T04:58:55.681Z,29.92495
2023-05-07T05:03:57.160Z,40.7959
2023-05-07T05:08:58.716Z,52.4144
2023-05-07T05:14:00.344Z,67.13055
2023-05-07T05:19:02.230Z,83.3223
2023-05-07T05:24:03.744Z,89.9245
2023-05-07T05:29:05.474Z,103.8667
2023-05-07T05:34:07.076Z,121.2393
2023-05-07T05:39:08.384Z,140.51155
2023-05-07T05:44:09.680Z,163.6934
2023-05-07T05:49:11.247Z,180.75225
2023-05-07T05:54:12.531Z,198.8988
2023-05-07T05:59:13.895Z,230.2326
2023-05-07T06:04:15.253Z,254.2074
2023-05-07T06:09:16.590Z,280.91095
2023-05-07T06:14:17.875Z,325.98535
2023-05-07T06:19:19.895Z,355.1799
2023-05-07T06:24:21.462Z,402.46585
2023-05-07T06:29:23.228Z,434.5926
2023-05-07T06:34:24.844Z,487.91025
2023-05-07T06:39:26.725Z,533.96205
2023-05-07T06:44:28.436Z,600.948
2023-05-07T06:49:30.074Z,652.02165
2023-05-07T06:54:31.830Z,660.8048
2023-05-07T06:59:33.504Z,630.46925
2023-05-07T07:04:35.473Z,544.98315
2023-05-07T07:09:37.177Z,691.66495
2023-05-07T07:14:38.782Z,442.33345
2023-05-07T07:19:40.445Z,539.69295
2023-05-07T07:24:42.055Z,360.8158
2023-05-07T07:29:43.655Z,317.18085
2023-05-07T07:34:45.249Z,294.77295
2023-05-07T07:39:46.843Z,302.11295
2023-05-07T07:44:48.443Z,301.6356
2023-05-07T07:49:50.082Z,278.8588
2023-05-07T07:54:51.884Z,228.71295
2023-05-07T07:59:53.490Z,223.12245
2023-05-07T08:04:55.108Z,241.0294
2023-05-07T08:09:56.727Z,322.6212
2023-05-07T08:14:58.369Z,381.10715
2023-05-07T08:19:59.998Z,388.7989
2023-05-07T08:25:01.661Z,361.02295
2023-05-07T08:30:03.240Z,449.23225
2023-05-07T08:35:04.937Z,381.3412
2023-05-07T08:40:09.268Z,399.8395
2023-05-07T08:45:12.136Z,423.45885
2023-05-07T08:50:13.724Z,512.7197
2023-05-07T08:55:15.447Z,748.97425
2023-05-07T09:00:16.820Z,729.92815
2023-05-07T09:05:18.437Z,819.7099
2023-05-07T09:10:19.930Z,851.60075
2023-05-07T09:15:21.488Z,622.18985
2023-05-07T09:20:22.995Z,519.90535
2023-05-07T09:25:24.556Z,467.4891
2023-05-07T09:30:26.112Z,421.5133
2023-05-07T09:35:27.820Z,392.04115
2023-05-07T09:40:29.498Z,370.6468
2023-05-07T09:45:31.102Z,376.2146
2023-05-07T09:50:32.736Z,347.5354
2023-05-07T09:55:34.303Z,371.89995
2023-05-07T10:00:35.793Z,344.52905
2023-05-07T10:05:37.374Z,424.1072
2023-05-07T10:10:39.015Z,609.97445
2023-05-07T10:15:40.656Z,770.3
2023-05-07T10:20:42.292Z,801.39235
2023-05-07T10:25:43.897Z,1492.07805
2023-05-07T10:30:45.622Z,1613.17275
2023-05-07T10:35:47.227Z,1257.61655
2023-05-07T10:40:48.891Z,641.4621
2023-05-07T10:45:50.738Z,397.2989
2023-05-07T10:50:52.520Z,377.65405
2023-05-07T10:55:54.368Z,320.4648
2023-05-07T11:00:55.939Z,280.86875
2023-05-07T11:05:57.572Z,255.15605
2023-05-07T11:10:59.378Z,260.94815
2023-05-07T11:16:01.068Z,236.496
2023-05-07T11:21:02.799Z,197.67205
2023-05-07T11:26:04.421Z,208.40445
2023-05-07T11:31:06.158Z,190.7751
2023-05-07T11:36:07.953Z,189.3528
2023-05-07T11:41:09.263Z,200.49395
2023-05-07T11:46:10.618Z,187.6087
2023-05-07T11:51:12.109Z,160.17725
2023-05-07T11:56:13.450Z,222.79155
2023-05-07T12:01:14.927Z,332.6728
2023-05-07T12:06:16.222Z,438.8859
2023-05-07T12:11:17.565Z,410.11725
2023-05-07T12:16:19.131Z,355.8185
2023-05-07T12:21:20.650Z,407.3811
2023-05-07T12:26:21.973Z,528.12775
2023-05-07T12:31:23.270Z,642.7704
2023-05-07T12:36:24.690Z,377.6559
2023-05-07T12:41:26.305Z,371.6622
2023-05-07T12:46:27.966Z,323.1574
2023-05-07T12:51:29.493Z,300.6202
2023-05-07T12:56:31.089Z,241.7139
2023-05-07T13:01:32.754Z,213.93795
2023-05-07T13:06:34.637Z,190.40435
2023-05-07T13:11:36.154Z,234.3359
2023-05-07T13:16:37.721Z,164.73335
2023-05-07T13:21:39.404Z,149.1654
2023-05-07T13:26:40.951Z,170.60195
2023-05-07T13:31:42.677Z,194.11235
2023-05-07T13:36:44.536Z,154.95795
2023-05-07T13:41:46.270Z,108.8677
2023-05-07T13:46:47.965Z,119.69325
2023-05-07T13:51:49.688Z,118.6987
2023-05-07T13:56:51.288Z,104.20315
2023-05-07T14:01:52.870Z,159.255
2023-05-07T14:06:55.030Z,226.3036
2023-05-07T14:11:56.839Z,199.86645
2023-05-07T14:16:58.689Z,228.8974
2023-05-07T14:22:00.559Z,212.6278
2023-05-07T14:27:02.472Z,255.76455
2023-05-07T14:32:04.156Z,188.7786
2023-05-07T14:37:05.804Z,141.06675
2023-05-07T14:42:07.540Z,128.3054
2023-05-07T14:47:08.898Z,101.63615
2023-05-07T14:52:10.257Z,82.63965
2023-05-07T14:57:11.657Z,64.9533
2023-05-07T15:02:13.001Z,47.1015
2023-05-07T15:07:14.426Z,30.4667
2023-05-07T15:12:15.665Z,21.4115
2023-05-07T15:17:16.973Z,18.53445
2023-05-07T15:22:18.396Z,9.84815
2023-05-07T15:27:19.665Z,6.9711
2023-05-07T15:32:21.023Z,1.3463
2023-05-07T15:37:22.417Z,0.4148
2023-05-07T15:42:24.015Z,1.16185
2023-05-07T15:47:25.328Z,0.88715
2023-05-07T15:52:26.941Z,0.88715
2023-05-07T15:57:28.574Z,0.88715
2023-05-07T16:02:30.238Z,0.88715
2023-05-07T16:07:31.562Z,0
2023-05-07T16:12:32.832Z,0
2023-05-07T16:17:34.169Z,0
2023-05-07T16:22:35.920Z,0
2023-05-07T16:27:37.349Z,0
2023-05-07T16:32:38.824Z,0
2023-05-07T16:37:40.207Z,0
2023-05-07T16:42:41.824Z,0.88715
2023-05-07T16:47:43.411Z,0
2023-05-07T16:52:45.097Z,0
2023-05-07T16:57:46.558Z,0
2023-05-07T17:02:48.066Z,0.88715
2023-05-07T17:07:49.976Z,0
2023-05-07T17:12:51.777Z,0
2023-05-07T17:17:53.386Z,0.88715
2023-05-07T17:22:55.432Z,0
2023-05-07T17:27:57.173Z,0
2023-05-07T17:33:09.356Z,0
2023-05-07T17:38:18.563Z,0
2023-05-07T17:43:20.233Z,0
2023-05-07T17:48:21.871Z,0
2023-05-07T17:53:23.556Z,0
2023-05-07T17:58:24.863Z,0
2023-05-07T18:03:26.287Z,0.88715
2023-05-07T18:08:27.782Z,0
2023-05-07T18:13:29.131Z,0
2023-05-07T18:18:30.473Z,0
2023-05-07T18:23:32.119Z,0
2023-05-07T18:28:33.719Z,0
2023-05-07T18:33:35.351Z,0
2023-05-07T18:38:37.085Z,0
2023-05-07T18:43:38.722Z,0
2023-05-07T18:48:40.331Z,0
2023-05-07T18:53:42.072Z,0
2023-05-07T18:58:43.662Z,0
2023-05-07T19:03:45.247Z,0
2023-05-07T19:08:46.535Z,0
2023-05-07T19:13:48.178Z,0
2023-05-07T19:18:49.785Z,0
2023-05-07T19:23:51.605Z,0
2023-05-07T19:33:57.695Z,0
2023-05-07T19:38:59.300Z,0
2023-05-07T19:44:00.961Z,0
2023-05-07T19:49:02.671Z,0
2023-05-07T19:54:04.400Z,0
2023-05-07T19:59:06.281Z,0
2023-05-07T20:04:08.048Z,0
2023-05-07T20:09:09.679Z,0
2023-05-07T20:14:12.059Z,0.88715
2023-05-07T20:19:14.449Z,0
2023-05-07T20:24:15.863Z,0
2023-05-07T20:29:17.168Z,0
2023-05-07T20:34:18.948Z,0
2023-05-07T20:39:20.343Z,0
2023-05-07T20:44:21.921Z,0
2023-05-07T20:49:23.510Z,0
2023-05-07T20:54:25.110Z,0
2023-05-07T20:59:26.642Z,0
2023-05-07T21:04:28.298Z,0
2023-05-07T21:09:30.013Z,0.88715
2023-05-07T21:14:31.565Z,0
2023-05-07T21:19:33.109Z,0
2023-05-07T21:24:34.379Z,0
2023-05-07T21:29:35.813Z,0
2023-05-07T21:34:37.157Z,0
2023-05-07T21:39:38.441Z,0
2023-05-07T21:44:40.119Z,0
2023-05-07T21:49:41.787Z,0
2023-05-07T21:54:43.406Z,0
2023-05-07T21:59:44.983Z,0
2023-05-07T22:04:46.561Z,0.88715
2023-05-07T22:09:48.209Z,0
2023-05-07T22:14:49.751Z,0
2023-05-07T22:19:51.337Z,0
2023-05-07T22:24:52.908Z,0
2023-05-07T22:29:54.216Z,0.88715
2023-05-07T22:34:55.503Z,0
2023-05-07T22:39:57.143Z,0
2023-05-07T22:44:58.726Z,0
2023-05-07T22:50:00.318Z,0
2023-05-07T22:55:01.801Z,0
2023-05-07T23:00:03.469Z,0
2023-05-07T23:05:05.090Z,0
2023-05-07T23:10:06.766Z,0.88715
2023-05-07T23:15:08.365Z,0
2023-05-07T23:20:09.928Z,0.88715
2023-05-07T23:25:11.402Z,0.88715
2023-05-07T23:30:13.021Z,0
2023-05-07T23:35:14.433Z,0
2023-05-07T23:40:15.713Z,0
2023-05-07T23:45:16.995Z,0
2023-05-07T23:50:18.458Z,0
2023-05-07T23:55:19.797Z,0
